sensor_id;sensor_type;location;lat;lon;timestamp;temperature;humidity
17452;DHT22;8843;48.838;9.324;2023-05-10T00:01:07;17.50;92.30
17452;DHT22;8843;48.838;9.324;2023-05-10T00:03:34;17.50;92.30
17452;DHT22;8843;48.838;9.324;2023-05-10T00:06:01;17.50;92.20
17452;DHT22;8843;48.838;9.324;2023-05-10T00:08:28;17.50;92.50
17452;DHT22;8843;48.838;9.324;2023-05-10T00:10:56;17.50;92.50
17452;DHT22;8843;48.838;9.324;2023-05-10T00:13:23;17.40;92.80
17452;DHT22;8843;48.838;9.324;2023-05-10T00:15:50;17.50;92.40
17452;DHT22;8843;48.838;9.324;2023-05-10T00:18:17;17.40;92.60
17452;DHT22;8843;48.838;9.324;2023-05-10T00:20:43;17.50;92.40
17452;DHT22;8843;48.838;9.324;2023-05-10T00:23:11;17.40;92.40
17452;DHT22;8843;48.838;9.324;2023-05-10T00:25:38;17.40;92.40
17452;DHT22;8843;48.838;9.324;2023-05-10T00:28:06;17.40;92.30
17452;DHT22;8843;48.838;9.324;2023-05-10T00:30:33;17.40;92.30
17452;DHT22;8843;48.838;9.324;2023-05-10T00:33:00;17.40;92.20
17452;DHT22;8843;48.838;9.324;2023-05-10T00:35:27;17.40;92.20
17452;DHT22;8843;48.838;9.324;2023-05-10T00:37:54;17.40;92.20
17452;DHT22;8843;48.838;9.324;2023-05-10T00:40:21;17.40;92.10
17452;DHT22;8843;48.838;9.324;2023-05-10T00:42:47;17.40;92.20
17452;DHT22;8843;48.838;9.324;2023-05-10T00:45:16;17.40;92.20
17452;DHT22;8843;48.838;9.324;2023-05-10T00:47:43;17.40;92.10
17452;DHT22;8843;48.838;9.324;2023-05-10T00:50:10;17.30;92.50
17452;DHT22;8843;48.838;9.324;2023-05-10T00:52:37;17.30;92.10
17452;DHT22;8843;48.838;9.324;2023-05-10T00:55:05;17.40;92.10
17452;DHT22;8843;48.838;9.324;2023-05-10T00:57:32;17.40;92.10
17452;DHT22;8843;48.838;9.324;2023-05-10T00:59:59;17.30;92.10
17452;DHT22;8843;48.838;9.324;2023-05-10T01:02:27;17.30;92.00
17452;DHT22;8843;48.838;9.324;2023-05-10T01:04:55;17.30;92.30
17452;DHT22;8843;48.838;9.324;2023-05-10T01:07:21;17.30;92.00
17452;DHT22;8843;48.838;9.324;2023-05-10T01:09:48;17.30;92.00
17452;DHT22;8843;48.838;9.324;2023-05-10T01:12:15;17.30;92.00
17452;DHT22;8843;48.838;9.324;2023-05-10T01:14:42;17.30;92.00
17452;DHT22;8843;48.838;9.324;2023-05-10T01:17:11;17.30;91.90
17452;DHT22;8843;48.838;9.324;2023-05-10T01:19:40;17.30;92.00
17452;DHT22;8843;48.838;9.324;2023-05-10T01:22:15;17.30;92.00
17452;DHT22;8843;48.838;9.324;2023-05-10T01:33:47;17.30;92.00
17452;DHT22;8843;48.838;9.324;2023-05-10T01:36:26;17.30;91.80
17452;DHT22;8843;48.838;9.324;2023-05-10T01:38:59;17.30;91.80
17452;DHT22;8843;48.838;9.324;2023-05-10T01:41:33;17.20;91.80
17452;DHT22;8843;48.838;9.324;2023-05-10T01:44:08;17.20;91.90
17452;DHT22;8843;48.838;9.324;2023-05-10T01:46:37;17.20;91.90
17452;DHT22;8843;48.838;9.324;2023-05-10T01:49:08;17.20;92.10
17452;DHT22;8843;48.838;9.324;2023-05-10T01:51:41;17.20;91.80
17452;DHT22;8843;48.838;9.324;2023-05-10T01:54:13;17.20;91.80
17452;DHT22;8843;48.838;9.324;2023-05-10T01:56:41;17.20;91.90
17452;DHT22;8843;48.838;9.324;2023-05-10T01:59:11;17.20;91.80
17452;DHT22;8843;48.838;9.324;2023-05-10T02:01:40;17.30;91.90
17452;DHT22;8843;48.838;9.324;2023-05-10T02:04:09;17.20;91.80
17452;DHT22;8843;48.838;9.324;2023-05-10T02:06:39;17.20;91.80
17452;DHT22;8843;48.838;9.324;2023-05-10T02:09:07;17.20;91.70
17452;DHT22;8843;48.838;9.324;2023-05-10T02:11:35;17.20;91.80
17452;DHT22;8843;48.838;9.324;2023-05-10T02:14:06;17.20;92.20
17452;DHT22;8843;48.838;9.324;2023-05-10T02:16:35;17.20;91.90
17452;DHT22;8843;48.838;9.324;2023-05-10T02:19:03;17.20;91.70
17452;DHT22;8843;48.838;9.324;2023-05-10T02:21:32;17.20;91.80
17452;DHT22;8843;48.838;9.324;2023-05-10T02:24:01;17.20;91.70
17452;DHT22;8843;48.838;9.324;2023-05-10T02:26:31;17.20;92.10
17452;DHT22;8843;48.838;9.324;2023-05-10T02:28:58;17.20;91.80
17452;DHT22;8843;48.838;9.324;2023-05-10T02:31:25;17.20;92.10
17452;DHT22;8843;48.838;9.324;2023-05-10T02:33:53;17.20;91.80
17452;DHT22;8843;48.838;9.324;2023-05-10T02:36:21;17.20;91.80
17452;DHT22;8843;48.838;9.324;2023-05-10T02:38:51;17.20;92.10
17452;DHT22;8843;48.838;9.324;2023-05-10T02:41:20;17.20;91.80
17452;DHT22;8843;48.838;9.324;2023-05-10T02:43:50;17.20;91.80
17452;DHT22;8843;48.838;9.324;2023-05-10T02:46:17;17.20;91.80
17452;DHT22;8843;48.838;9.324;2023-05-10T02:48:44;17.20;91.80
17452;DHT22;8843;48.838;9.324;2023-05-10T02:51:15;17.20;91.80
17452;DHT22;8843;48.838;9.324;2023-05-10T02:53:45;17.20;91.80
17452;DHT22;8843;48.838;9.324;2023-05-10T02:56:20;17.20;91.80
17452;DHT22;8843;48.838;9.324;2023-05-10T02:58:50;17.20;91.70
17452;DHT22;8843;48.838;9.324;2023-05-10T03:01:17;17.20;91.70
17452;DHT22;8843;48.838;9.324;2023-05-10T03:03:44;17.20;91.70
17452;DHT22;8843;48.838;9.324;2023-05-10T03:06:11;17.20;92.10
17452;DHT22;8843;48.838;9.324;2023-05-10T03:08:38;17.10;91.70
17452;DHT22;8843;48.838;9.324;2023-05-10T03:11:21;17.20;91.70
17452;DHT22;8843;48.838;9.324;2023-05-10T03:14:01;17.20;91.70
17452;DHT22;8843;48.838;9.324;2023-05-10T03:16:44;17.10;91.70
17452;DHT22;8843;48.838;9.324;2023-05-10T03:19:16;17.10;91.70
17452;DHT22;8843;48.838;9.324;2023-05-10T03:21:49;17.10;91.70
17452;DHT22;8843;48.838;9.324;2023-05-10T03:24:20;17.10;91.70
17452;DHT22;8843;48.838;9.324;2023-05-10T03:26:49;17.10;91.70
17452;DHT22;8843;48.838;9.324;2023-05-10T03:29:18;17.10;91.70
17452;DHT22;8843;48.838;9.324;2023-05-10T03:31:46;17.10;91.70
17452;DHT22;8843;48.838;9.324;2023-05-10T03:34:13;17.10;91.60
17452;DHT22;8843;48.838;9.324;2023-05-10T03:36:39;17.10;91.70
17452;DHT22;8843;48.838;9.324;2023-05-10T03:39:06;17.10;91.70
17452;DHT22;8843;48.838;9.324;2023-05-10T03:41:33;17.10;91.70
17452;DHT22;8843;48.838;9.324;2023-05-10T03:44:01;17.10;91.70
17452;DHT22;8843;48.838;9.324;2023-05-10T03:46:28;17.10;91.70
17452;DHT22;8843;48.838;9.324;2023-05-10T03:48:55;17.10;91.70
17452;DHT22;8843;48.838;9.324;2023-05-10T03:51:22;17.10;91.70
17452;DHT22;8843;48.838;9.324;2023-05-10T03:53:50;17.10;91.70
17452;DHT22;8843;48.838;9.324;2023-05-10T03:56:17;17.10;91.70
17452;DHT22;8843;48.838;9.324;2023-05-10T03:58:44;17.10;91.70
17452;DHT22;8843;48.838;9.324;2023-05-10T04:01:12;17.10;91.70
17452;DHT22;8843;48.838;9.324;2023-05-10T04:03:39;17.10;91.70
17452;DHT22;8843;48.838;9.324;2023-05-10T04:06:06;17.10;91.70
17452;DHT22;8843;48.838;9.324;2023-05-10T04:08:34;17.10;91.70
17452;DHT22;8843;48.838;9.324;2023-05-10T04:11:05;17.00;91.60
17452;DHT22;8843;48.838;9.324;2023-05-10T04:13:33;17.00;92.00
17452;DHT22;8843;48.838;9.324;2023-05-10T04:16:00;17.00;92.00
17452;DHT22;8843;48.838;9.324;2023-05-10T04:18:28;17.00;92.00
17452;DHT22;8843;48.838;9.324;2023-05-10T04:20:55;17.00;91.60
17452;DHT22;8843;48.838;9.324;2023-05-10T04:23:22;17.00;91.70
17452;DHT22;8843;48.838;9.324;2023-05-10T04:25:50;17.00;91.70
17452;DHT22;8843;48.838;9.324;2023-05-10T04:28:17;17.00;91.70
17452;DHT22;8843;48.838;9.324;2023-05-10T04:30:44;17.00;91.70
17452;DHT22;8843;48.838;9.324;2023-05-10T04:33:11;17.00;91.70
17452;DHT22;8843;48.838;9.324;2023-05-10T04:35:39;17.00;91.70
17452;DHT22;8843;48.838;9.324;2023-05-10T04:38:06;17.00;91.70
17452;DHT22;8843;48.838;9.324;2023-05-10T04:40:33;17.00;91.70
17452;DHT22;8843;48.838;9.324;2023-05-10T04:43:01;17.00;91.70
17452;DHT22;8843;48.838;9.324;2023-05-10T04:45:28;16.90;92.00
17452;DHT22;8843;48.838;9.324;2023-05-10T04:47:54;17.00;92.10
17452;DHT22;8843;48.838;9.324;2023-05-10T04:50:21;17.00;91.70
17452;DHT22;8843;48.838;9.324;2023-05-10T04:52:49;16.70;91.90
17452;DHT22;8843;48.838;9.324;2023-05-10T04:55:16;16.40;92.40
17452;DHT22;8843;48.838;9.324;2023-05-10T04:57:43;16.30;92.60
17452;DHT22;8843;48.838;9.324;2023-05-10T05:00:11;16.30;92.60
17452;DHT22;8843;48.838;9.324;2023-05-10T05:02:38;16.30;92.60
17452;DHT22;8843;48.838;9.324;2023-05-10T05:05:08;16.20;92.80
17452;DHT22;8843;48.838;9.324;2023-05-10T05:07:35;16.10;92.70
17452;DHT22;8843;48.838;9.324;2023-05-10T05:10:05;16.10;92.80
17452;DHT22;8843;48.838;9.324;2023-05-10T05:12:32;16.10;92.90
17452;DHT22;8843;48.838;9.324;2023-05-10T05:14:59;16.00;93.00
17452;DHT22;8843;48.838;9.324;2023-05-10T05:17:26;16.00;93.10
17452;DHT22;8843;48.838;9.324;2023-05-10T05:19:53;16.00;93.30
17452;DHT22;8843;48.838;9.324;2023-05-10T05:22:20;16.00;93.60
17452;DHT22;8843;48.838;9.324;2023-05-10T05:24:52;16.00;93.30
17452;DHT22;8843;48.838;9.324;2023-05-10T05:27:21;16.00;93.40
17452;DHT22;8843;48.838;9.324;2023-05-10T05:29:49;16.00;93.30
17452;DHT22;8843;48.838;9.324;2023-05-10T05:32:16;16.20;93.50
17452;DHT22;8843;48.838;9.324;2023-05-10T05:34:46;16.30;93.30
17452;DHT22;8843;48.838;9.324;2023-05-10T05:37:19;16.40;92.70
17452;DHT22;8843;48.838;9.324;2023-05-10T05:39:51;16.60;92.50
17452;DHT22;8843;48.838;9.324;2023-05-10T05:42:18;16.50;92.50
17452;DHT22;8843;48.838;9.324;2023-05-10T05:44:46;16.60;92.30
17452;DHT22;8843;48.838;9.324;2023-05-10T05:47:13;16.70;92.60
17452;DHT22;8843;48.838;9.324;2023-05-10T05:49:40;16.70;92.20
17452;DHT22;8843;48.838;9.324;2023-05-10T05:52:06;16.70;92.10
17452;DHT22;8843;48.838;9.324;2023-05-10T05:54:33;16.70;92.00
17452;DHT22;8843;48.838;9.324;2023-05-10T05:57:00;16.70;92.00
17452;DHT22;8843;48.838;9.324;2023-05-10T05:59:27;16.70;91.90
17452;DHT22;8843;48.838;9.324;2023-05-10T06:01:56;16.70;92.00
17452;DHT22;8843;48.838;9.324;2023-05-10T06:04:23;16.70;92.00
17452;DHT22;8843;48.838;9.324;2023-05-10T06:06:50;16.80;92.00
17452;DHT22;8843;48.838;9.324;2023-05-10T06:09:16;16.80;92.00
17452;DHT22;8843;48.838;9.324;2023-05-10T06:11:43;16.80;92.30
17452;DHT22;8843;48.838;9.324;2023-05-10T06:14:10;16.70;91.90
17452;DHT22;8843;48.838;9.324;2023-05-10T06:16:37;16.70;92.00
17452;DHT22;8843;48.838;9.324;2023-05-10T06:19:05;16.80;92.00
17452;DHT22;8843;48.838;9.324;2023-05-10T06:21:32;16.80;92.00
17452;DHT22;8843;48.838;9.324;2023-05-10T06:23:59;16.80;92.00
17452;DHT22;8843;48.838;9.324;2023-05-10T06:26:26;16.80;92.00
17452;DHT22;8843;48.838;9.324;2023-05-10T06:28:53;16.80;92.10
17452;DHT22;8843;48.838;9.324;2023-05-10T06:31:19;16.70;92.00
17452;DHT22;8843;48.838;9.324;2023-05-10T06:33:46;16.80;92.40
17452;DHT22;8843;48.838;9.324;2023-05-10T06:36:14;16.80;92.00
17452;DHT22;8843;48.838;9.324;2023-05-10T06:38:41;16.80;92.10
17452;DHT22;8843;48.838;9.324;2023-05-10T06:41:08;16.70;92.20
17452;DHT22;8843;48.838;9.324;2023-05-10T06:43:35;16.70;92.00
17452;DHT22;8843;48.838;9.324;2023-05-10T06:46:05;16.70;92.10
17452;DHT22;8843;48.838;9.324;2023-05-10T06:48:32;16.70;92.10
17452;DHT22;8843;48.838;9.324;2023-05-10T06:50:59;16.70;92.10
17452;DHT22;8843;48.838;9.324;2023-05-10T06:53:28;16.70;92.10
17452;DHT22;8843;48.838;9.324;2023-05-10T06:55:55;16.70;92.00
17452;DHT22;8843;48.838;9.324;2023-05-10T06:58:22;16.80;92.10
17452;DHT22;8843;48.838;9.324;2023-05-10T07:00:49;16.70;92.10
17452;DHT22;8843;48.838;9.324;2023-05-10T07:03:16;16.70;92.10
17452;DHT22;8843;48.838;9.324;2023-05-10T07:05:42;16.70;92.10
17452;DHT22;8843;48.838;9.324;2023-05-10T07:08:09;16.70;92.20
17452;DHT22;8843;48.838;9.324;2023-05-10T07:10:37;16.70;92.40
17452;DHT22;8843;48.838;9.324;2023-05-10T07:13:04;16.70;92.20
17452;DHT22;8843;48.838;9.324;2023-05-10T07:15:31;16.70;92.20
17452;DHT22;8843;48.838;9.324;2023-05-10T07:17:59;16.70;92.20
17452;DHT22;8843;48.838;9.324;2023-05-10T07:20:26;16.70;92.10
17452;DHT22;8843;48.838;9.324;2023-05-10T07:22:53;16.70;92.30
17452;DHT22;8843;48.838;9.324;2023-05-10T07:25:20;16.70;92.10
17452;DHT22;8843;48.838;9.324;2023-05-10T07:27:48;16.70;92.40
17452;DHT22;8843;48.838;9.324;2023-05-10T07:30:16;16.70;92.40
17452;DHT22;8843;48.838;9.324;2023-05-10T07:32:43;16.70;92.40
17452;DHT22;8843;48.838;9.324;2023-05-10T07:35:10;16.70;92.30
17452;DHT22;8843;48.838;9.324;2023-05-10T07:37:37;16.70;92.40
17452;DHT22;8843;48.838;9.324;2023-05-10T07:40:05;16.70;92.60
17452;DHT22;8843;48.838;9.324;2023-05-10T07:42:32;16.70;92.60
17452;DHT22;8843;48.838;9.324;2023-05-10T07:45:00;16.70;92.60
17452;DHT22;8843;48.838;9.324;2023-05-10T07:47:27;16.60;92.60
17452;DHT22;8843;48.838;9.324;2023-05-10T07:49:54;16.70;92.50
17452;DHT22;8843;48.838;9.324;2023-05-10T07:52:21;16.70;92.40
17452;DHT22;8843;48.838;9.324;2023-05-10T07:54:48;16.70;92.60
17452;DHT22;8843;48.838;9.324;2023-05-10T07:57:15;16.70;92.70
17452;DHT22;8843;48.838;9.324;2023-05-10T07:59:43;16.70;92.50
17452;DHT22;8843;48.838;9.324;2023-05-10T08:02:12;16.70;92.90
17452;DHT22;8843;48.838;9.324;2023-05-10T08:04:38;16.70;92.80
17452;DHT22;8843;48.838;9.324;2023-05-10T08:07:05;16.70;92.50
17452;DHT22;8843;48.838;9.324;2023-05-10T08:09:32;16.70;92.80
17452;DHT22;8843;48.838;9.324;2023-05-10T08:11:59;16.70;92.80
17452;DHT22;8843;48.838;9.324;2023-05-10T08:14:28;16.60;92.80
17452;DHT22;8843;48.838;9.324;2023-05-10T08:16:55;16.60;92.70
17452;DHT22;8843;48.838;9.324;2023-05-10T08:19:23;16.60;92.40
17452;DHT22;8843;48.838;9.324;2023-05-10T08:21:50;16.60;92.50
17452;DHT22;8843;48.838;9.324;2023-05-10T08:24:17;16.60;92.50
17452;DHT22;8843;48.838;9.324;2023-05-10T08:26:44;16.60;92.40
17452;DHT22;8843;48.838;9.324;2023-05-10T08:29:10;16.60;92.50
17452;DHT22;8843;48.838;9.324;2023-05-10T08:31:37;16.60;92.20
17452;DHT22;8843;48.838;9.324;2023-05-10T08:34:04;16.60;92.20
17452;DHT22;8843;48.838;9.324;2023-05-10T08:36:32;16.60;92.10
17452;DHT22;8843;48.838;9.324;2023-05-10T08:38:59;16.60;92.20
17452;DHT22;8843;48.838;9.324;2023-05-10T08:41:26;16.60;92.20
17452;DHT22;8843;48.838;9.324;2023-05-10T08:43:54;16.60;92.10
17452;DHT22;8843;48.838;9.324;2023-05-10T08:46:22;16.60;92.30
17452;DHT22;8843;48.838;9.324;2023-05-10T08:48:50;16.60;92.30
17452;DHT22;8843;48.838;9.324;2023-05-10T08:51:20;16.60;92.40
17452;DHT22;8843;48.838;9.324;2023-05-10T08:53:50;16.60;92.40
17452;DHT22;8843;48.838;9.324;2023-05-10T08:56:17;16.60;92.10
17452;DHT22;8843;48.838;9.324;2023-05-10T08:58:45;16.60;92.20
17452;DHT22;8843;48.838;9.324;2023-05-10T09:01:12;16.60;92.10
17452;DHT22;8843;48.838;9.324;2023-05-10T09:03:40;16.60;91.70
17452;DHT22;8843;48.838;9.324;2023-05-10T09:06:07;16.60;91.90
17452;DHT22;8843;48.838;9.324;2023-05-10T09:08:34;16.60;91.70
17452;DHT22;8843;48.838;9.324;2023-05-10T09:11:05;16.60;91.50
17452;DHT22;8843;48.838;9.324;2023-05-10T09:13:32;16.60;91.90
17452;DHT22;8843;48.838;9.324;2023-05-10T09:15:59;16.60;91.90
17452;DHT22;8843;48.838;9.324;2023-05-10T09:18:26;16.70;91.90
17452;DHT22;8843;48.838;9.324;2023-05-10T09:20:54;16.60;92.20
17452;DHT22;8843;48.838;9.324;2023-05-10T09:23:21;16.60;91.80
17452;DHT22;8843;48.838;9.324;2023-05-10T09:26:01;16.70;92.00
17452;DHT22;8843;48.838;9.324;2023-05-10T09:28:33;16.70;92.10
17452;DHT22;8843;48.838;9.324;2023-05-10T09:31:00;16.70;92.10
17452;DHT22;8843;48.838;9.324;2023-05-10T09:33:26;16.70;91.90
17452;DHT22;8843;48.838;9.324;2023-05-10T09:35:53;16.70;91.80
17452;DHT22;8843;48.838;9.324;2023-05-10T09:38:20;16.70;91.80
17452;DHT22;8843;48.838;9.324;2023-05-10T09:40:52;16.70;91.70
17452;DHT22;8843;48.838;9.324;2023-05-10T09:43:20;16.70;91.80
17452;DHT22;8843;48.838;9.324;2023-05-10T09:45:49;16.70;91.80
17452;DHT22;8843;48.838;9.324;2023-05-10T09:48:16;16.80;91.90
17452;DHT22;8843;48.838;9.324;2023-05-10T09:50:43;16.70;91.40
17452;DHT22;8843;48.838;9.324;2023-05-10T09:53:14;16.80;91.50
17452;DHT22;8843;48.838;9.324;2023-05-10T09:55:43;16.80;91.60
17452;DHT22;8843;48.838;9.324;2023-05-10T09:58:12;16.70;91.40
17452;DHT22;8843;48.838;9.324;2023-05-10T10:00:41;16.70;91.40
17452;DHT22;8843;48.838;9.324;2023-05-10T10:03:14;16.80;91.30
17452;DHT22;8843;48.838;9.324;2023-05-10T10:05:42;16.80;91.40
17452;DHT22;8843;48.838;9.324;2023-05-10T10:08:10;16.80;91.50
17452;DHT22;8843;48.838;9.324;2023-05-10T10:10:37;16.80;91.30
17452;DHT22;8843;48.838;9.324;2023-05-10T10:13:06;16.80;91.30
17452;DHT22;8843;48.838;9.324;2023-05-10T10:15:34;16.70;91.20
17452;DHT22;8843;48.838;9.324;2023-05-10T10:18:01;16.80;91.20
17452;DHT22;8843;48.838;9.324;2023-05-10T10:20:30;16.80;91.30
17452;DHT22;8843;48.838;9.324;2023-05-10T10:22:57;16.80;90.80
17452;DHT22;8843;48.838;9.324;2023-05-10T10:25:25;16.70;91.10
17452;DHT22;8843;48.838;9.324;2023-05-10T10:28:04;16.70;90.90
17452;DHT22;8843;48.838;9.324;2023-05-10T10:30:39;16.70;90.90
17452;DHT22;8843;48.838;9.324;2023-05-10T10:33:23;16.70;91.00
17452;DHT22;8843;48.838;9.324;2023-05-10T10:35:53;16.70;91.00
17452;DHT22;8843;48.838;9.324;2023-05-10T10:38:21;16.70;90.90
17452;DHT22;8843;48.838;9.324;2023-05-10T10:40:49;16.80;90.90
17452;DHT22;8843;48.838;9.324;2023-05-10T10:43:28;16.80;90.70
17452;DHT22;8843;48.838;9.324;2023-05-10T10:46:12;16.80;90.70
17452;DHT22;8843;48.838;9.324;2023-05-10T10:48:40;16.70;90.60
17452;DHT22;8843;48.838;9.324;2023-05-10T10:51:08;16.70;90.70
17452;DHT22;8843;48.838;9.324;2023-05-10T10:53:37;16.70;90.60
17452;DHT22;8843;48.838;9.324;2023-05-10T10:56:08;16.70;90.50
17452;DHT22;8843;48.838;9.324;2023-05-10T10:58:36;16.80;90.60
17452;DHT22;8843;48.838;9.324;2023-05-10T11:01:12;16.70;90.90
17452;DHT22;8843;48.838;9.324;2023-05-10T11:03:40;16.70;90.60
17452;DHT22;8843;48.838;9.324;2023-05-10T11:06:08;16.70;90.50
17452;DHT22;8843;48.838;9.324;2023-05-10T11:08:41;16.80;90.30
17452;DHT22;8843;48.838;9.324;2023-05-10T11:11:14;16.80;90.10
17452;DHT22;8843;48.838;9.324;2023-05-10T11:13:42;16.80;90.30
17452;DHT22;8843;48.838;9.324;2023-05-10T11:16:14;16.80;90.40
17452;DHT22;8843;48.838;9.324;2023-05-10T11:19:02;16.90;90.30
17452;DHT22;8843;48.838;9.324;2023-05-10T11:21:31;16.90;90.20
17452;DHT22;8843;48.838;9.324;2023-05-10T11:24:00;16.90;90.20
17452;DHT22;8843;48.838;9.324;2023-05-10T11:26:32;16.90;90.00
17452;DHT22;8843;48.838;9.324;2023-05-10T11:29:00;16.90;90.10
17452;DHT22;8843;48.838;9.324;2023-05-10T11:31:28;16.90;90.00
17452;DHT22;8843;48.838;9.324;2023-05-10T11:33:56;16.90;89.40
17452;DHT22;8843;48.838;9.324;2023-05-10T11:36:25;16.80;89.90
17452;DHT22;8843;48.838;9.324;2023-05-10T11:38:54;16.80;90.00
17452;DHT22;8843;48.838;9.324;2023-05-10T11:41:22;16.80;89.80
17452;DHT22;8843;48.838;9.324;2023-05-10T11:43:50;16.90;89.80
17452;DHT22;8843;48.838;9.324;2023-05-10T11:46:19;16.80;90.20
17452;DHT22;8843;48.838;9.324;2023-05-10T11:48:48;16.80;89.30
17452;DHT22;8843;48.838;9.324;2023-05-10T11:51:19;16.90;89.30
17452;DHT22;8843;48.838;9.324;2023-05-10T11:53:46;16.90;89.90
17452;DHT22;8843;48.838;9.324;2023-05-10T11:56:14;16.80;89.00
17452;DHT22;8843;48.838;9.324;2023-05-10T11:58:41;16.80;87.70
17452;DHT22;8843;48.838;9.324;2023-05-10T12:01:08;16.80;87.70
17452;DHT22;8843;48.838;9.324;2023-05-10T12:03:36;16.80;88.30
17452;DHT22;8843;48.838;9.324;2023-05-10T12:06:04;16.80;88.00
17452;DHT22;8843;48.838;9.324;2023-05-10T12:08:31;16.80;87.40
17452;DHT22;8843;48.838;9.324;2023-05-10T12:11:05;16.80;87.40
17452;DHT22;8843;48.838;9.324;2023-05-10T12:13:37;16.80;87.60
17452;DHT22;8843;48.838;9.324;2023-05-10T12:16:13;16.80;87.90
17452;DHT22;8843;48.838;9.324;2023-05-10T12:18:40;16.80;87.50
17452;DHT22;8843;48.838;9.324;2023-05-10T12:21:09;16.80;86.90
17452;DHT22;8843;48.838;9.324;2023-05-10T12:23:36;16.80;86.90
17452;DHT22;8843;48.838;9.324;2023-05-10T12:26:04;16.70;88.00
17452;DHT22;8843;48.838;9.324;2023-05-10T12:28:31;16.70;88.30
17452;DHT22;8843;48.838;9.324;2023-05-10T12:31:00;16.70;88.20
17452;DHT22;8843;48.838;9.324;2023-05-10T12:33:35;16.70;88.10
17452;DHT22;8843;48.838;9.324;2023-05-10T12:36:02;16.70;87.50
17452;DHT22;8843;48.838;9.324;2023-05-10T12:38:32;16.70;87.80
17452;DHT22;8843;48.838;9.324;2023-05-10T12:41:00;16.70;87.20
17452;DHT22;8843;48.838;9.324;2023-05-10T12:43:27;16.70;87.10
17452;DHT22;8843;48.838;9.324;2023-05-10T12:45:54;16.70;86.90
17452;DHT22;8843;48.838;9.324;2023-05-10T12:48:23;16.70;86.80
17452;DHT22;8843;48.838;9.324;2023-05-10T12:50:50;16.70;87.00
17452;DHT22;8843;48.838;9.324;2023-05-10T12:53:17;16.80;86.90
17452;DHT22;8843;48.838;9.324;2023-05-10T12:55:44;16.70;88.00
17452;DHT22;8843;48.838;9.324;2023-05-10T12:58:11;16.70;86.70
17452;DHT22;8843;48.838;9.324;2023-05-10T13:00:38;16.70;86.80
17452;DHT22;8843;48.838;9.324;2023-05-10T13:03:05;16.70;86.40
17452;DHT22;8843;48.838;9.324;2023-05-10T13:05:33;16.70;86.30
17452;DHT22;8843;48.838;9.324;2023-05-10T13:08:00;16.80;86.00
17452;DHT22;8843;48.838;9.324;2023-05-10T13:10:29;16.70;86.10
17452;DHT22;8843;48.838;9.324;2023-05-10T13:12:56;16.70;86.70
17452;DHT22;8843;48.838;9.324;2023-05-10T13:15:23;16.80;85.80
17452;DHT22;8843;48.838;9.324;2023-05-10T13:17:50;16.80;86.30
17452;DHT22;8843;48.838;9.324;2023-05-10T13:20:17;16.80;87.10
17452;DHT22;8843;48.838;9.324;2023-05-10T13:22:45;16.80;85.80
17452;DHT22;8843;48.838;9.324;2023-05-10T13:25:12;16.80;85.80
17452;DHT22;8843;48.838;9.324;2023-05-10T13:27:39;16.80;85.60
17452;DHT22;8843;48.838;9.324;2023-05-10T13:30:07;16.80;86.30
17452;DHT22;8843;48.838;9.324;2023-05-10T13:32:35;16.80;86.50
17452;DHT22;8843;48.838;9.324;2023-05-10T13:35:02;16.70;85.90
17452;DHT22;8843;48.838;9.324;2023-05-10T13:37:29;16.70;84.90
17452;DHT22;8843;48.838;9.324;2023-05-10T13:39:58;16.80;85.20
17452;DHT22;8843;48.838;9.324;2023-05-10T13:42:25;16.70;85.30
17452;DHT22;8843;48.838;9.324;2023-05-10T13:44:52;16.70;85.40
17452;DHT22;8843;48.838;9.324;2023-05-10T13:47:19;16.70;85.80
17452;DHT22;8843;48.838;9.324;2023-05-10T13:49:47;16.70;86.50
17452;DHT22;8843;48.838;9.324;2023-05-10T13:52:14;16.70;86.70
17452;DHT22;8843;48.838;9.324;2023-05-10T13:54:40;16.70;87.40
17452;DHT22;8843;48.838;9.324;2023-05-10T13:57:09;16.70;86.30
17452;DHT22;8843;48.838;9.324;2023-05-10T13:59:38;16.70;88.10
17452;DHT22;8843;48.838;9.324;2023-05-10T14:02:05;16.70;86.10
17452;DHT22;8843;48.838;9.324;2023-05-10T14:04:32;16.70;86.30
17452;DHT22;8843;48.838;9.324;2023-05-10T14:07:00;16.70;86.50
17452;DHT22;8843;48.838;9.324;2023-05-10T14:09:27;16.70;86.50
17452;DHT22;8843;48.838;9.324;2023-05-10T14:11:54;16.70;85.90
17452;DHT22;8843;48.838;9.324;2023-05-10T14:14:22;16.70;86.40
17452;DHT22;8843;48.838;9.324;2023-05-10T14:16:49;16.70;85.40
17452;DHT22;8843;48.838;9.324;2023-05-10T14:19:16;16.80;85.30
17452;DHT22;8843;48.838;9.324;2023-05-10T14:21:43;16.70;87.40
17452;DHT22;8843;48.838;9.324;2023-05-10T14:24:10;16.70;85.30
17452;DHT22;8843;48.838;9.324;2023-05-10T14:26:37;16.80;85.60
17452;DHT22;8843;48.838;9.324;2023-05-10T14:29:04;16.80;84.60
17452;DHT22;8843;48.838;9.324;2023-05-10T14:31:32;16.80;86.10
17452;DHT22;8843;48.838;9.324;2023-05-10T14:33:59;16.80;86.10
17452;DHT22;8843;48.838;9.324;2023-05-10T14:36:26;16.80;86.00
17452;DHT22;8843;48.838;9.324;2023-05-10T14:38:53;16.80;79.80
17452;DHT22;8843;48.838;9.324;2023-05-10T14:41:19;16.80;82.00
17452;DHT22;8843;48.838;9.324;2023-05-10T14:43:46;16.80;82.10
17452;DHT22;8843;48.838;9.324;2023-05-10T14:46:13;16.80;82.70
17452;DHT22;8843;48.838;9.324;2023-05-10T14:48:42;16.80;82.50
17452;DHT22;8843;48.838;9.324;2023-05-10T14:51:09;16.80;82.90
17452;DHT22;8843;48.838;9.324;2023-05-10T14:53:36;16.80;83.40
17452;DHT22;8843;48.838;9.324;2023-05-10T14:56:03;16.80;83.20
17452;DHT22;8843;48.838;9.324;2023-05-10T14:58:30;16.80;82.80
17452;DHT22;8843;48.838;9.324;2023-05-10T15:00:57;16.80;82.90
17452;DHT22;8843;48.838;9.324;2023-05-10T15:03:24;16.70;84.40
17452;DHT22;8843;48.838;9.324;2023-05-10T15:05:52;16.70;82.20
17452;DHT22;8843;48.838;9.324;2023-05-10T15:08:21;16.80;82.60
17452;DHT22;8843;48.838;9.324;2023-05-10T15:10:49;16.70;82.50
17452;DHT22;8843;48.838;9.324;2023-05-10T15:13:16;16.80;82.40
17452;DHT22;8843;48.838;9.324;2023-05-10T15:15:43;16.80;82.60
17452;DHT22;8843;48.838;9.324;2023-05-10T15:18:09;16.80;83.00
17452;DHT22;8843;48.838;9.324;2023-05-10T15:20:36;16.70;82.60
17452;DHT22;8843;48.838;9.324;2023-05-10T15:23:04;16.80;83.40
17452;DHT22;8843;48.838;9.324;2023-05-10T15:25:31;16.80;83.40
17452;DHT22;8843;48.838;9.324;2023-05-10T15:28:00;16.80;82.30
17452;DHT22;8843;48.838;9.324;2023-05-10T15:30:27;16.80;81.90
17452;DHT22;8843;48.838;9.324;2023-05-10T15:32:54;16.70;82.40
17452;DHT22;8843;48.838;9.324;2023-05-10T15:35:21;16.80;82.30
17452;DHT22;8843;48.838;9.324;2023-05-10T15:37:48;16.80;81.40
17452;DHT22;8843;48.838;9.324;2023-05-10T15:40:17;16.80;81.50
17452;DHT22;8843;48.838;9.324;2023-05-10T15:42:44;16.80;81.00
17452;DHT22;8843;48.838;9.324;2023-05-10T15:45:11;16.80;81.00
17452;DHT22;8843;48.838;9.324;2023-05-10T15:47:38;16.80;82.10
17452;DHT22;8843;48.838;9.324;2023-05-10T15:50:06;16.80;82.60
17452;DHT22;8843;48.838;9.324;2023-05-10T15:52:33;16.80;82.20
17452;DHT22;8843;48.838;9.324;2023-05-10T15:55:00;16.90;79.50
17452;DHT22;8843;48.838;9.324;2023-05-10T15:57:29;16.90;79.50
17452;DHT22;8843;48.838;9.324;2023-05-10T15:59:56;16.90;79.30